sensor_id;sensor_type;location;lat;lon;timestamp;P1;P2;P0
64631;PMS5003;58358;50.936;0.246;2022-11-20T00:00:54;34;34;
64631;PMS5003;58358;50.936;0.246;2022-11-20T00:03:20;38;37;
64631;PMS5003;58358;50.936;0.246;2022-11-20T00:05:45;52;43;
64631;PMS5003;58358;50.936;0.246;2022-11-20T00:08:12;64;59;
64631;PMS5003;58358;50.936;0.246;2022-11-20T00:10:36;39;37;
64631;PMS5003;58358;50.936;0.246;2022-11-20T00:13:01;50;44;
64631;PMS5003;58358;50.936;0.246;2022-11-20T00:15:27;58;54;
64631;PMS5003;58358;50.936;0.246;2022-11-20T00:17:52;52;47;
64631;PMS5003;58358;50.936;0.246;2022-11-20T00:20:17;64;56;
64631;PMS5003;58358;50.936;0.246;2022-11-20T00:22:49;37;32;
64631;PMS5003;58358;50.936;0.246;2022-11-20T00:25:08;64;57;
64631;PMS5003;58358;50.936;0.246;2022-11-20T00:27:33;43;38;
64631;PMS5003;58358;50.936;0.246;2022-11-20T00:29:58;38;36;
64631;PMS5003;58358;50.936;0.246;2022-11-20T00:32:24;42;39;
64631;PMS5003;58358;50.936;0.246;2022-11-20T00:34:49;40;37;
64631;PMS5003;58358;50.936;0.246;2022-11-20T00:37:14;32;31;
64631;PMS5003;58358;50.936;0.246;2022-11-20T00:39:40;36;32;
64631;PMS5003;58358;50.936;0.246;2022-11-20T00:42:05;32;32;
64631;PMS5003;58358;50.936;0.246;2022-11-20T00:44:31;56;47;
64631;PMS5003;58358;50.936;0.246;2022-11-20T00:46:56;50;49;
64631;PMS5003;58358;50.936;0.246;2022-11-20T00:49:22;66;53;
64631;PMS5003;58358;50.936;0.246;2022-11-20T00:51:47;56;48;
64631;PMS5003;58358;50.936;0.246;2022-11-20T00:54:13;46;40;
64631;PMS5003;58358;50.936;0.246;2022-11-20T00:56:39;38;33;
64631;PMS5003;58358;50.936;0.246;2022-11-20T00:59:04;33;32;
64631;PMS5003;58358;50.936;0.246;2022-11-20T01:01:30;35;32;
64631;PMS5003;58358;50.936;0.246;2022-11-20T01:03:56;40;34;
64631;PMS5003;58358;50.936;0.246;2022-11-20T01:06:21;28;28;
64631;PMS5003;58358;50.936;0.246;2022-11-20T01:08:47;32;30;
64631;PMS5003;58358;50.936;0.246;2022-11-20T01:11:12;30;28;
64631;PMS5003;58358;50.936;0.246;2022-11-20T01:13:37;35;32;
64631;PMS5003;58358;50.936;0.246;2022-11-20T01:16:03;28;28;
64631;PMS5003;58358;50.936;0.246;2022-11-20T01:18:27;44;40;
64631;PMS5003;58358;50.936;0.246;2022-11-20T01:20:53;40;39;
64631;PMS5003;58358;50.936;0.246;2022-11-20T01:23:18;43;39;
64631;PMS5003;58358;50.936;0.246;2022-11-20T01:25:44;32;31;
64631;PMS5003;58358;50.936;0.246;2022-11-20T01:28:10;37;37;
64631;PMS5003;58358;50.936;0.246;2022-11-20T01:30:36;30;29;
64631;PMS5003;58358;50.936;0.246;2022-11-20T01:33:01;47;41;
64631;PMS5003;58358;50.936;0.246;2022-11-20T01:35:26;33;33;
64631;PMS5003;58358;50.936;0.246;2022-11-20T01:37:51;31;31;
64631;PMS5003;58358;50.936;0.246;2022-11-20T01:40:17;36;33;
64631;PMS5003;58358;50.936;0.246;2022-11-20T01:42:44;34;33;
64631;PMS5003;58358;50.936;0.246;2022-11-20T01:47:34;38;33;
64631;PMS5003;58358;50.936;0.246;2022-11-20T01:49:59;34;32;
64631;PMS5003;58358;50.936;0.246;2022-11-20T01:52:25;29;29;
64631;PMS5003;58358;50.936;0.246;2022-11-20T01:54:51;31;31;
64631;PMS5003;58358;50.936;0.246;2022-11-20T01:57:15;32;32;
64631;PMS5003;58358;50.936;0.246;2022-11-20T01:59:42;32;30;
64631;PMS5003;58358;50.936;0.246;2022-11-20T02:02:06;35;32;
64631;PMS5003;58358;50.936;0.246;2022-11-20T02:04:31;30;29;
64631;PMS5003;58358;50.936;0.246;2022-11-20T02:06:58;36;36;
64631;PMS5003;58358;50.936;0.246;2022-11-20T02:09:22;32;32;
64631;PMS5003;58358;50.936;0.246;2022-11-20T02:11:48;32;31;
64631;PMS5003;58358;50.936;0.246;2022-11-20T02:14:13;34;32;
64631;PMS5003;58358;50.936;0.246;2022-11-20T02:16:39;25;25;
64631;PMS5003;58358;50.936;0.246;2022-11-20T02:19:06;26;25;
64631;PMS5003;58358;50.936;0.246;2022-11-20T02:21:33;29;25;
64631;PMS5003;58358;50.936;0.246;2022-11-20T02:23:59;36;33;
64631;PMS5003;58358;50.936;0.246;2022-11-20T02:26:21;35;32;
64631;PMS5003;58358;50.936;0.246;2022-11-20T02:28:46;35;34;
64631;PMS5003;58358;50.936;0.246;2022-11-20T02:31:12;33;31;
64631;PMS5003;58358;50.936;0.246;2022-11-20T02:33:37;33;31;
64631;PMS5003;58358;50.936;0.246;2022-11-20T02:36:03;32;31;
64631;PMS5003;58358;50.936;0.246;2022-11-20T02:38:28;38;35;
64631;PMS5003;58358;50.936;0.246;2022-11-20T02:40:54;32;29;
64631;PMS5003;58358;50.936;0.246;2022-11-20T02:43:19;26;26;
64631;PMS5003;58358;50.936;0.246;2022-11-20T02:45:44;39;35;
64631;PMS5003;58358;50.936;0.246;2022-11-20T02:48:10;39;39;
64631;PMS5003;58358;50.936;0.246;2022-11-20T02:50:36;46;39;
64631;PMS5003;58358;50.936;0.246;2022-11-20T02:53:00;32;31;
64631;PMS5003;58358;50.936;0.246;2022-11-20T02:55:26;32;30;
64631;PMS5003;58358;50.936;0.246;2022-11-20T02:57:51;26;26;
64631;PMS5003;58358;50.936;0.246;2022-11-20T03:00:16;47;47;
64631;PMS5003;58358;50.936;0.246;2022-11-20T03:02:42;42;42;
64631;PMS5003;58358;50.936;0.246;2022-11-20T03:05:07;38;38;
64631;PMS5003;58358;50.936;0.246;2022-11-20T03:07:32;41;35;
64631;PMS5003;58358;50.936;0.246;2022-11-20T03:09:58;44;42;
64631;PMS5003;58358;50.936;0.246;2022-11-20T03:12:23;37;33;
64631;PMS5003;58358;50.936;0.246;2022-11-20T03:14:49;41;38;
64631;PMS5003;58358;50.936;0.246;2022-11-20T03:17:15;30;27;
64631;PMS5003;58358;50.936;0.246;2022-11-20T03:19:40;26;26;
64631;PMS5003;58358;50.936;0.246;2022-11-20T03:22:05;25;24;
64631;PMS5003;58358;50.936;0.246;2022-11-20T03:24:30;26;23;
64631;PMS5003;58358;50.936;0.246;2022-11-20T03:26:56;20;19;
64631;PMS5003;58358;50.936;0.246;2022-11-20T03:29:22;18;18;
64631;PMS5003;58358;50.936;0.246;2022-11-20T03:31:47;25;24;
64631;PMS5003;58358;50.936;0.246;2022-11-20T03:34:13;26;24;
64631;PMS5003;58358;50.936;0.246;2022-11-20T03:36:39;24;24;
64631;PMS5003;58358;50.936;0.246;2022-11-20T03:39:04;28;27;
64631;PMS5003;58358;50.936;0.246;2022-11-20T03:41:30;24;24;
64631;PMS5003;58358;50.936;0.246;2022-11-20T03:43:56;22;22;
64631;PMS5003;58358;50.936;0.246;2022-11-20T03:46:21;22;22;
64631;PMS5003;58358;50.936;0.246;2022-11-20T03:48:47;18;17;
64631;PMS5003;58358;50.936;0.246;2022-11-20T03:51:13;23;23;
64631;PMS5003;58358;50.936;0.246;2022-11-20T03:53:38;23;20;
64631;PMS5003;58358;50.936;0.246;2022-11-20T03:56:03;17;17;
64631;PMS5003;58358;50.936;0.246;2022-11-20T03:58:29;25;19;
64631;PMS5003;58358;50.936;0.246;2022-11-20T04:00:55;21;19;
64631;PMS5003;58358;50.936;0.246;2022-11-20T04:03:20;16;16;
64631;PMS5003;58358;50.936;0.246;2022-11-20T04:05:45;16;13;
64631;PMS5003;58358;50.936;0.246;2022-11-20T04:08:11;16;15;
64631;PMS5003;58358;50.936;0.246;2022-11-20T04:10:36;19;19;
64631;PMS5003;58358;50.936;0.246;2022-11-20T04:13:02;16;16;
64631;PMS5003;58358;50.936;0.246;2022-11-20T04:15:27;19;18;
64631;PMS5003;58358;50.936;0.246;2022-11-20T04:17:53;17;17;
64631;PMS5003;58358;50.936;0.246;2022-11-20T04:20:18;17;17;
64631;PMS5003;58358;50.936;0.246;2022-11-20T04:22:44;20;18;
64631;PMS5003;58358;50.936;0.246;2022-11-20T04:25:09;17;17;
64631;PMS5003;58358;50.936;0.246;2022-11-20T04:27:35;20;19;
64631;PMS5003;58358;50.936;0.246;2022-11-20T04:30:00;18;18;
64631;PMS5003;58358;50.936;0.246;2022-11-20T04:32:26;19;15;
64631;PMS5003;58358;50.936;0.246;2022-11-20T04:34:51;11;11;
64631;PMS5003;58358;50.936;0.246;2022-11-20T04:37:17;12;12;
64631;PMS5003;58358;50.936;0.246;2022-11-20T04:39:43;10;10;
64631;PMS5003;58358;50.936;0.246;2022-11-20T04:42:08;14;14;
64631;PMS5003;58358;50.936;0.246;2022-11-20T04:44:34;13;13;
64631;PMS5003;58358;50.936;0.246;2022-11-20T04:47:00;14;14;
64631;PMS5003;58358;50.936;0.246;2022-11-20T04:49:26;14;14;
64631;PMS5003;58358;50.936;0.246;2022-11-20T04:51:52;15;13;
64631;PMS5003;58358;50.936;0.246;2022-11-20T04:54:17;13;13;
64631;PMS5003;58358;50.936;0.246;2022-11-20T04:56:43;12;11;
64631;PMS5003;58358;50.936;0.246;2022-11-20T04:59:08;14;14;
64631;PMS5003;58358;50.936;0.246;2022-11-20T05:01:34;10;10;
64631;PMS5003;58358;50.936;0.246;2022-11-20T05:04:00;12;12;
64631;PMS5003;58358;50.936;0.246;2022-11-20T05:06:26;17;15;
64631;PMS5003;58358;50.936;0.246;2022-11-20T05:08:52;10;10;
64631;PMS5003;58358;50.936;0.246;2022-11-20T05:11:18;11;11;
64631;PMS5003;58358;50.936;0.246;2022-11-20T05:13:43;13;11;
64631;PMS5003;58358;50.936;0.246;2022-11-20T05:16:09;12;11;
64631;PMS5003;58358;50.936;0.246;2022-11-20T05:18:35;10;10;
64631;PMS5003;58358;50.936;0.246;2022-11-20T05:21:00;12;12;
64631;PMS5003;58358;50.936;0.246;2022-11-20T05:23:26;14;14;
64631;PMS5003;58358;50.936;0.246;2022-11-20T05:25:52;12;12;
64631;PMS5003;58358;50.936;0.246;2022-11-20T05:28:17;11;11;
64631;PMS5003;58358;50.936;0.246;2022-11-20T05:30:43;11;10;
64631;PMS5003;58358;50.936;0.246;2022-11-20T05:33:09;11;11;
64631;PMS5003;58358;50.936;0.246;2022-11-20T05:35:35;12;12;
64631;PMS5003;58358;50.936;0.246;2022-11-20T05:38:00;13;13;
64631;PMS5003;58358;50.936;0.246;2022-11-20T05:40:26;15;11;
64631;PMS5003;58358;50.936;0.246;2022-11-20T05:42:51;12;10;
64631;PMS5003;58358;50.936;0.246;2022-11-20T05:45:17;9;9;
64631;PMS5003;58358;50.936;0.246;2022-11-20T05:47:43;13;12;
64631;PMS5003;58358;50.936;0.246;2022-11-20T05:50:09;13;12;
64631;PMS5003;58358;50.936;0.246;2022-11-20T05:52:35;10;10;
64631;PMS5003;58358;50.936;0.246;2022-11-20T05:55:00;12;12;
64631;PMS5003;58358;50.936;0.246;2022-11-20T05:57:26;9;9;
64631;PMS5003;58358;50.936;0.246;2022-11-20T05:59:52;12;11;
64631;PMS5003;58358;50.936;0.246;2022-11-20T06:02:17;9;8;
64631;PMS5003;58358;50.936;0.246;2022-11-20T06:04:43;12;12;
64631;PMS5003;58358;50.936;0.246;2022-11-20T06:07:09;11;11;
64631;PMS5003;58358;50.936;0.246;2022-11-20T06:09:35;11;10;
64631;PMS5003;58358;50.936;0.246;2022-11-20T06:12:00;13;11;
64631;PMS5003;58358;50.936;0.246;2022-11-20T06:14:26;10;9;
64631;PMS5003;58358;50.936;0.246;2022-11-20T06:16:52;10;10;
64631;PMS5003;58358;50.936;0.246;2022-11-20T06:19:18;10;10;
64631;PMS5003;58358;50.936;0.246;2022-11-20T06:21:44;12;11;
64631;PMS5003;58358;50.936;0.246;2022-11-20T06:24:10;11;10;
64631;PMS5003;58358;50.936;0.246;2022-11-20T06:26:37;12;11;
64631;PMS5003;58358;50.936;0.246;2022-11-20T06:29:01;10;10;
64631;PMS5003;58358;50.936;0.246;2022-11-20T06:31:27;12;11;
64631;PMS5003;58358;50.936;0.246;2022-11-20T06:33:52;11;11;
64631;PMS5003;58358;50.936;0.246;2022-11-20T06:36:18;10;10;
64631;PMS5003;58358;50.936;0.246;2022-11-20T06:38:44;8;8;
64631;PMS5003;58358;50.936;0.246;2022-11-20T06:41:11;12;11;
64631;PMS5003;58358;50.936;0.246;2022-11-20T06:43:35;12;10;
64631;PMS5003;58358;50.936;0.246;2022-11-20T06:46:01;13;10;
64631;PMS5003;58358;50.936;0.246;2022-11-20T06:48:27;11;11;
64631;PMS5003;58358;50.936;0.246;2022-11-20T06:50:52;10;10;
64631;PMS5003;58358;50.936;0.246;2022-11-20T06:53:18;12;11;
64631;PMS5003;58358;50.936;0.246;2022-11-20T06:55:43;10;10;
64631;PMS5003;58358;50.936;0.246;2022-11-20T06:58:09;10;8;
64631;PMS5003;58358;50.936;0.246;2022-11-20T07:00:35;4;4;
64631;PMS5003;58358;50.936;0.246;2022-11-20T07:03:02;3;3;
64631;PMS5003;58358;50.936;0.246;2022-11-20T07:05:27;2;2;
64631;PMS5003;58358;50.936;0.246;2022-11-20T07:07:55;4;4;
64631;PMS5003;58358;50.936;0.246;2022-11-20T07:10:18;2;2;
64631;PMS5003;58358;50.936;0.246;2022-11-20T07:12:48;3;1;
64631;PMS5003;58358;50.936;0.246;2022-11-20T07:15:10;3;0;
64631;PMS5003;58358;50.936;0.246;2022-11-20T07:17:36;3;3;
64631;PMS5003;58358;50.936;0.246;2022-11-20T07:20:01;1;1;
64631;PMS5003;58358;50.936;0.246;2022-11-20T07:22:27;2;2;
64631;PMS5003;58358;50.936;0.246;2022-11-20T07:24:53;2;0;
64631;PMS5003;58358;50.936;0.246;2022-11-20T07:27:19;9;9;
64631;PMS5003;58358;50.936;0.246;2022-11-20T07:29:44;121;110;
64631;PMS5003;58358;50.936;0.246;2022-11-20T07:32:09;84;81;
64631;PMS5003;58358;50.936;0.246;2022-11-20T07:34:35;102;100;
64631;PMS5003;58358;50.936;0.246;2022-11-20T07:37:00;83;75;
64631;PMS5003;58358;50.936;0.246;2022-11-20T07:39:26;42;39;
64631;PMS5003;58358;50.936;0.246;2022-11-20T07:41:51;41;36;
64631;PMS5003;58358;50.936;0.246;2022-11-20T07:44:17;13;10;
64631;PMS5003;58358;50.936;0.246;2022-11-20T07:46:43;12;10;
64631;PMS5003;58358;50.936;0.246;2022-11-20T07:49:08;13;10;
64631;PMS5003;58358;50.936;0.246;2022-11-20T07:51:34;17;13;
64631;PMS5003;58358;50.936;0.246;2022-11-20T07:53:59;29;25;
64631;PMS5003;58358;50.936;0.246;2022-11-20T07:56:25;27;23;
64631;PMS5003;58358;50.936;0.246;2022-11-20T07:58:51;14;14;
64631;PMS5003;58358;50.936;0.246;2022-11-20T08:01:16;25;20;
64631;PMS5003;58358;50.936;0.246;2022-11-20T08:03:42;13;13;
64631;PMS5003;58358;50.936;0.246;2022-11-20T08:06:08;11;8;
64631;PMS5003;58358;50.936;0.246;2022-11-20T08:08:33;21;19;
64631;PMS5003;58358;50.936;0.246;2022-11-20T08:10:58;14;14;
64631;PMS5003;58358;50.936;0.246;2022-11-20T08:13:23;16;13;
64631;PMS5003;58358;50.936;0.246;2022-11-20T08:15:49;4;3;
64631;PMS5003;58358;50.936;0.246;2022-11-20T08:18:15;12;10;
64631;PMS5003;58358;50.936;0.246;2022-11-20T08:20:40;9;9;
64631;PMS5003;58358;50.936;0.246;2022-11-20T08:23:07;11;8;
64631;PMS5003;58358;50.936;0.246;2022-11-20T08:25:32;14;14;
64631;PMS5003;58358;50.936;0.246;2022-11-20T08:27:58;11;11;
64631;PMS5003;58358;50.936;0.246;2022-11-20T08:30:23;15;13;
64631;PMS5003;58358;50.936;0.246;2022-11-20T08:32:49;13;9;
64631;PMS5003;58358;50.936;0.246;2022-11-20T08:35:14;6;5;
64631;PMS5003;58358;50.936;0.246;2022-11-20T08:37:40;14;12;
64631;PMS5003;58358;50.936;0.246;2022-11-20T08:40:06;10;9;
64631;PMS5003;58358;50.936;0.246;2022-11-20T08:42:31;3;3;
64631;PMS5003;58358;50.936;0.246;2022-11-20T08:44:57;2;2;
64631;PMS5003;58358;50.936;0.246;2022-11-20T08:47:23;2;2;
64631;PMS5003;58358;50.936;0.246;2022-11-20T08:49:49;3;2;
64631;PMS5003;58358;50.936;0.246;2022-11-20T08:52:14;1;1;
64631;PMS5003;58358;50.936;0.246;2022-11-20T08:54:40;0;0;
64631;PMS5003;58358;50.936;0.246;2022-11-20T08:57:05;0;0;
64631;PMS5003;58358;50.936;0.246;2022-11-20T08:59:31;0;0;
64631;PMS5003;58358;50.936;0.246;2022-11-20T09:01:57;0;0;
64631;PMS5003;58358;50.936;0.246;2022-11-20T09:04:23;0;0;
64631;PMS5003;58358;50.936;0.246;2022-11-20T09:06:48;0;0;
64631;PMS5003;58358;50.936;0.246;2022-11-20T09:09:14;0;0;
64631;PMS5003;58358;50.936;0.246;2022-11-20T09:11:40;1;1;
64631;PMS5003;58358;50.936;0.246;2022-11-20T09:14:06;1;1;
64631;PMS5003;58358;50.936;0.246;2022-11-20T09:16:32;1;1;
64631;PMS5003;58358;50.936;0.246;2022-11-20T09:18:57;1;1;
64631;PMS5003;58358;50.936;0.246;2022-11-20T09:21:23;1;1;
64631;PMS5003;58358;50.936;0.246;2022-11-20T09:23:49;1;1;
64631;PMS5003;58358;50.936;0.246;2022-11-20T09:26:15;2;2;
64631;PMS5003;58358;50.936;0.246;2022-11-20T09:28:40;1;1;
64631;PMS5003;58358;50.936;0.246;2022-11-20T09:31:06;3;3;
64631;PMS5003;58358;50.936;0.246;2022-11-20T09:33:32;3;2;
64631;PMS5003;58358;50.936;0.246;2022-11-20T09:35:58;1;1;
64631;PMS5003;58358;50.936;0.246;2022-11-20T09:38:23;3;3;
64631;PMS5003;58358;50.936;0.246;2022-11-20T09:40:51;1;1;
64631;PMS5003;58358;50.936;0.246;2022-11-20T09:43:16;3;2;
64631;PMS5003;58358;50.936;0.246;2022-11-20T09:45:46;1;1;
64631;PMS5003;58358;50.936;0.246;2022-11-20T09:50:33;2;2;
64631;PMS5003;58358;50.936;0.246;2022-11-20T09:53:04;1;1;
64631;PMS5003;58358;50.936;0.246;2022-11-20T09:55:24;3;2;
64631;PMS5003;58358;50.936;0.246;2022-11-20T09:57:50;3;3;
64631;PMS5003;58358;50.936;0.246;2022-11-20T10:00:15;2;2;
64631;PMS5003;58358;50.936;0.246;2022-11-20T10:02:42;4;3;
64631;PMS5003;58358;50.936;0.246;2022-11-20T10:05:09;4;4;
64631;PMS5003;58358;50.936;0.246;2022-11-20T10:07:34;3;3;
64631;PMS5003;58358;50.936;0.246;2022-11-20T10:09:58;4;4;
64631;PMS5003;58358;50.936;0.246;2022-11-20T10:12:26;5;3;
64631;PMS5003;58358;50.936;0.246;2022-11-20T10:14:54;4;2;
64631;PMS5003;58358;50.936;0.246;2022-11-20T10:17:18;4;3;
64631;PMS5003;58358;50.936;0.246;2022-11-20T10:19:45;5;3;
64631;PMS5003;58358;50.936;0.246;2022-11-20T10:22:09;4;4;
64631;PMS5003;58358;50.936;0.246;2022-11-20T10:24:38;3;3;
64631;PMS5003;58358;50.936;0.246;2022-11-20T10:26:59;3;3;
64631;PMS5003;58358;50.936;0.246;2022-11-20T10:29:26;7;3;
64631;PMS5003;58358;50.936;0.246;2022-11-20T10:31:50;5;5;
64631;PMS5003;58358;50.936;0.246;2022-11-20T10:34:18;6;6;
64631;PMS5003;58358;50.936;0.246;2022-11-20T10:36:43;5;3;
64631;PMS5003;58358;50.936;0.246;2022-11-20T10:39:11;6;5;
64631;PMS5003;58358;50.936;0.246;2022-11-20T10:41:34;3;3;
64631;PMS5003;58358;50.936;0.246;2022-11-20T10:44:02;4;3;
64631;PMS5003;58358;50.936;0.246;2022-11-20T10:46:25;5;4;
64631;PMS5003;58358;50.936;0.246;2022-11-20T10:48:50;3;3;
64631;PMS5003;58358;50.936;0.246;2022-11-20T10:51:18;3;3;
64631;PMS5003;58358;50.936;0.246;2022-11-20T10:53:47;5;5;
64631;PMS5003;58358;50.936;0.246;2022-11-20T10:56:09;4;3;
64631;PMS5003;58358;50.936;0.246;2022-11-20T10:58:35;3;3;
64631;PMS5003;58358;50.936;0.246;2022-11-20T11:01:03;4;4;
64631;PMS5003;58358;50.936;0.246;2022-11-20T11:03:26;6;3;
64631;PMS5003;58358;50.936;0.246;2022-11-20T11:05:51;4;3;
64631;PMS5003;58358;50.936;0.246;2022-11-20T11:08:18;5;4;
64631;PMS5003;58358;50.936;0.246;2022-11-20T11:10:44;5;5;
64631;PMS5003;58358;50.936;0.246;2022-11-20T11:15:38;6;4;
64631;PMS5003;58358;50.936;0.246;2022-11-20T11:17:58;7;7;
64631;PMS5003;58358;50.936;0.246;2022-11-20T11:20:24;8;5;
64631;PMS5003;58358;50.936;0.246;2022-11-20T11:22:49;7;5;
64631;PMS5003;58358;50.936;0.246;2022-11-20T11:25:25;13;12;
64631;PMS5003;58358;50.936;0.246;2022-11-20T11:30:12;15;10;
64631;PMS5003;58358;50.936;0.246;2022-11-20T11:32:32;15;12;
64631;PMS5003;58358;50.936;0.246;2022-11-20T11:34:58;9;9;
64631;PMS5003;58358;50.936;0.246;2022-11-20T11:37:23;8;6;
64631;PMS5003;58358;50.936;0.246;2022-11-20T11:39:49;18;16;
64631;PMS5003;58358;50.936;0.246;2022-11-20T11:42:15;14;12;
64631;PMS5003;58358;50.936;0.246;2022-11-20T11:44:43;9;9;
64631;PMS5003;58358;50.936;0.246;2022-11-20T11:47:08;12;8;
64631;PMS5003;58358;50.936;0.246;2022-11-20T11:49:31;10;10;
64631;PMS5003;58358;50.936;0.246;2022-11-20T11:51:59;15;11;
64631;PMS5003;58358;50.936;0.246;2022-11-20T11:54:23;25;22;
64631;PMS5003;58358;50.936;0.246;2022-11-20T11:56:48;17;14;
64631;PMS5003;58358;50.936;0.246;2022-11-20T11:59:15;18;14;
64631;PMS5003;58358;50.936;0.246;2022-11-20T12:01:41;17;16;
64631;PMS5003;58358;50.936;0.246;2022-11-20T12:04:05;17;14;
64631;PMS5003;58358;50.936;0.246;2022-11-20T12:06:30;18;16;
64631;PMS5003;58358;50.936;0.246;2022-11-20T12:08:57;11;9;
64631;PMS5003;58358;50.936;0.246;2022-11-20T12:11:23;18;15;
64631;PMS5003;58358;50.936;0.246;2022-11-20T12:13:48;12;9;
64631;PMS5003;58358;50.936;0.246;2022-11-20T12:16:12;14;13;
64631;PMS5003;58358;50.936;0.246;2022-11-20T12:18:37;10;9;
64631;PMS5003;58358;50.936;0.246;2022-11-20T12:21:05;5;5;
64631;PMS5003;58358;50.936;0.246;2022-11-20T12:23:28;7;5;
64631;PMS5003;58358;50.936;0.246;2022-11-20T12:25:54;5;5;
64631;PMS5003;58358;50.936;0.246;2022-11-20T12:28:26;5;5;
64631;PMS5003;58358;50.936;0.246;2022-11-20T12:30:48;5;5;
64631;PMS5003;58358;50.936;0.246;2022-11-20T12:33:13;3;3;
64631;PMS5003;58358;50.936;0.246;2022-11-20T12:35:41;5;5;
64631;PMS5003;58358;50.936;0.246;2022-11-20T12:38:07;5;4;
64631;PMS5003;58358;50.936;0.246;2022-11-20T12:40:28;9;7;
64631;PMS5003;58358;50.936;0.246;2022-11-20T12:42:57;7;4;
64631;PMS5003;58358;50.936;0.246;2022-11-20T12:45:24;5;5;
64631;PMS5003;58358;50.936;0.246;2022-11-20T12:47:50;4;4;
64631;PMS5003;58358;50.936;0.246;2022-11-20T12:50:12;8;6;
64631;PMS5003;58358;50.936;0.246;2022-11-20T12:52:38;5;3;
64631;PMS5003;58358;50.936;0.246;2022-11-20T12:57:29;11;8;
64631;PMS5003;58358;50.936;0.246;2022-11-20T13:02:23;5;4;
64631;PMS5003;58358;50.936;0.246;2022-11-20T13:04:49;6;4;
64631;PMS5003;58358;50.936;0.246;2022-11-20T13:07:12;5;5;
64631;PMS5003;58358;50.936;0.246;2022-11-20T13:09:37;6;4;
64631;PMS5003;58358;50.936;0.246;2022-11-20T13:12:04;6;4;
64631;PMS5003;58358;50.936;0.246;2022-11-20T13:14:30;5;5;
64631;PMS5003;58358;50.936;0.246;2022-11-20T13:16:54;5;4;
64631;PMS5003;58358;50.936;0.246;2022-11-20T13:19:19;7;5;
64631;PMS5003;58358;50.936;0.246;2022-11-20T13:21:45;9;7;
64631;PMS5003;58358;50.936;0.246;2022-11-20T13:26:36;6;6;
64631;PMS5003;58358;50.936;0.246;2022-11-20T13:29:16;5;4;
64631;PMS5003;58358;50.936;0.246;2022-11-20T13:31:29;5;4;
64631;PMS5003;58358;50.936;0.246;2022-11-20T13:33:54;6;4;
64631;PMS5003;58358;50.936;0.246;2022-11-20T13:36:20;4;4;
64631;PMS5003;58358;50.936;0.246;2022-11-20T13:38:46;4;3;
64631;PMS5003;58358;50.936;0.246;2022-11-20T13:41:11;8;5;
64631;PMS5003;58358;50.936;0.246;2022-11-20T13:43:37;6;3;
64631;PMS5003;58358;50.936;0.246;2022-11-20T13:46:03;6;4;
64631;PMS5003;58358;50.936;0.246;2022-11-20T13:48:30;5;4;
64631;PMS5003;58358;50.936;0.246;2022-11-20T13:50:57;3;3;
64631;PMS5003;58358;50.936;0.246;2022-11-20T13:53:25;10;8;
64631;PMS5003;58358;50.936;0.246;2022-11-20T13:55:46;6;5;
64631;PMS5003;58358;50.936;0.246;2022-11-20T13:58:17;6;5;
64631;PMS5003;58358;50.936;0.246;2022-11-20T14:03:08;5;4;
64631;PMS5003;58358;50.936;0.246;2022-11-20T14:05:28;7;5;
64631;PMS5003;58358;50.936;0.246;2022-11-20T14:07:54;5;3;
64631;PMS5003;58358;50.936;0.246;2022-11-20T14:10:21;5;3;
64631;PMS5003;58358;50.936;0.246;2022-11-20T14:12:45;6;4;
64631;PMS5003;58358;50.936;0.246;2022-11-20T14:17:36;6;6;
64631;PMS5003;58358;50.936;0.246;2022-11-20T14:20:03;4;4;
64631;PMS5003;58358;50.936;0.246;2022-11-20T14:22:28;5;4;
64631;PMS5003;58358;50.936;0.246;2022-11-20T14:27:20;10;7;
64631;PMS5003;58358;50.936;0.246;2022-11-20T14:29:45;9;8;
64631;PMS5003;58358;50.936;0.246;2022-11-20T14:32:11;9;8;
64631;PMS5003;58358;50.936;0.246;2022-11-20T14:34:38;8;8;
64631;PMS5003;58358;50.936;0.246;2022-11-20T14:37:03;2;2;
64631;PMS5003;58358;50.936;0.246;2022-11-20T14:39:29;7;5;
64631;PMS5003;58358;50.936;0.246;2022-11-20T14:41:53;8;5;
64631;PMS5003;58358;50.936;0.246;2022-11-20T14:44:19;5;5;
64631;PMS5003;58358;50.936;0.246;2022-11-20T14:46:44;7;6;
64631;PMS5003;58358;50.936;0.246;2022-11-20T14:49:10;7;5;
64631;PMS5003;58358;50.936;0.246;2022-11-20T14:51:36;9;8;
64631;PMS5003;58358;50.936;0.246;2022-11-20T14:54:08;5;4;
64631;PMS5003;58358;50.936;0.246;2022-11-20T14:56:27;7;4;
64631;PMS5003;58358;50.936;0.246;2022-11-20T14:58:55;6;6;
64631;PMS5003;58358;50.936;0.246;2022-11-20T15:01:18;14;14;
64631;PMS5003;58358;50.936;0.246;2022-11-20T15:03:44;9;8;
64631;PMS5003;58358;50.936;0.246;2022-11-20T15:06:11;7;5;
64631;PMS5003;58358;50.936;0.246;2022-11-20T15:08:36;7;7;
64631;PMS5003;58358;50.936;0.246;2022-11-20T15:11:01;6;5;
64631;PMS5003;58358;50.936;0.246;2022-11-20T15:13:29;15;13;
64631;PMS5003;58358;50.936;0.246;2022-11-20T15:15:53;8;5;
64631;PMS5003;58358;50.936;0.246;2022-11-20T15:18:20;7;7;
64631;PMS5003;58358;50.936;0.246;2022-11-20T15:20:44;7;4;
64631;PMS5003;58358;50.936;0.246;2022-11-20T15:23:10;7;7;
64631;PMS5003;58358;50.936;0.246;2022-11-20T15:25:35;5;5;
64631;PMS5003;58358;50.936;0.246;2022-11-20T15:28:01;13;13;
64631;PMS5003;58358;50.936;0.246;2022-11-20T15:30:26;9;7;
64631;PMS5003;58358;50.936;0.246;2022-11-20T15:32:52;9;7;
64631;PMS5003;58358;50.936;0.246;2022-11-20T15:35:17;6;5;
64631;PMS5003;58358;50.936;0.246;2022-11-20T15:37:43;5;4;
64631;PMS5003;58358;50.936;0.246;2022-11-20T15:40:09;12;11;
64631;PMS5003;58358;50.936;0.246;2022-11-20T15:42:34;22;21;
64631;PMS5003;58358;50.936;0.246;2022-11-20T15:45:00;9;8;
64631;PMS5003;58358;50.936;0.246;2022-11-20T15:47:26;7;4;
64631;PMS5003;58358;50.936;0.246;2022-11-20T15:49:51;16;12;
64631;PMS5003;58358;50.936;0.246;2022-11-20T15:52:16;10;10;
64631;PMS5003;58358;50.936;0.246;2022-11-20T15:54:42;22;18;
64631;PMS5003;58358;50.936;0.246;2022-11-20T15:57:07;25;23;
64631;PMS5003;58358;50.936;0.246;2022-11-20T15:59:33;13;13;
64631;PMS5003;58358;50.936;0.246;2022-11-20T16:01:58;15;12;
64631;PMS5003;58358;50.936;0.246;2022-11-20T16:04:23;18;16;
64631;PMS5003;58358;50.936;0.246;2022-11-20T16:06:49;22;20;
64631;PMS5003;58358;50.936;0.246;2022-11-20T16:09:14;18;14;
64631;PMS5003;58358;50.936;0.246;2022-11-20T16:11:40;6;6;
64631;PMS5003;58358;50.936;0.246;2022-11-20T16:14:06;7;7;
64631;PMS5003;58358;50.936;0.246;2022-11-20T16:16:32;16;12;
64631;PMS5003;58358;50.936;0.246;2022-11-20T16:18:57;11;10;
64631;PMS5003;58358;50.936;0.246;2022-11-20T16:21:22;12;8;
64631;PMS5003;58358;50.936;0.246;2022-11-20T16:23:48;22;18;
64631;PMS5003;58358;50.936;0.246;2022-11-20T16:26:14;14;12;
64631;PMS5003;58358;50.936;0.246;2022-11-20T16:28:39;10;7;
64631;PMS5003;58358;50.936;0.246;2022-11-20T16:31:09;11;8;
64631;PMS5003;58358;50.936;0.246;2022-11-20T16:33:30;7;7;
64631;PMS5003;58358;50.936;0.246;2022-11-20T16:35:56;9;7;
64631;PMS5003;58358;50.936;0.246;2022-11-20T16:38:22;10;8;
64631;PMS5003;58358;50.936;0.246;2022-11-20T16:40:48;13;13;
64631;PMS5003;58358;50.936;0.246;2022-11-20T16:43:13;18;17;